createdAt,value
2019-04-19T00:01:20.547Z,10.30
2019-04-19T00:03:51.196Z,10.30
2019-04-19T00:06:36.666Z,10.30
2019-04-19T00:09:16.694Z,10.30
2019-04-19T00:11:42.302Z,10.30
2019-04-19T00:14:06.421Z,10.10
2019-04-19T00:16:36.448Z,10.00
2019-04-19T00:19:25.157Z,10.00
2019-04-19T00:22:04.725Z,10.00
2019-04-19T00:24:08.211Z,10.10
2019-04-19T00:26:38.010Z,10.00
2019-04-19T00:29:16.720Z,9.90
2019-04-19T00:31:48.015Z,10.00
2019-04-19T00:34:10.395Z,10.00
2019-04-19T00:36:40.859Z,10.00
2019-04-19T00:39:41.044Z,10.00
2019-04-19T00:42:17.904Z,10.00
2019-04-19T00:45:01.995Z,10.00
2019-04-19T00:47:23.628Z,10.00
2019-04-19T00:49:55.390Z,9.90
2019-04-19T00:52:23.437Z,9.80
2019-04-19T00:54:56.524Z,9.80
2019-04-19T00:57:20.455Z,9.80
2019-04-19T00:59:46.536Z,9.80
2019-04-19T01:02:16.962Z,9.70
2019-04-19T01:04:45.128Z,9.70
2019-04-19T01:07:21.224Z,9.70
2019-04-19T01:10:03.320Z,9.60
2019-04-19T01:12:27.245Z,9.60
2019-04-19T01:15:04.720Z,9.50
2019-04-19T01:17:33.249Z,9.50
2019-04-19T01:19:55.777Z,9.50
2019-04-19T01:22:26.173Z,9.50
2019-04-19T01:24:53.371Z,9.50
2019-04-19T01:27:27.613Z,9.50
2019-04-19T01:29:57.503Z,9.40
2019-04-19T01:32:26.297Z,9.40
2019-04-19T01:35:00.902Z,9.40
2019-04-19T01:37:28.701Z,9.40
2019-04-19T01:40:15.870Z,9.30
2019-04-19T01:42:43.847Z,9.30
2019-04-19T01:45:17.307Z,9.30
2019-04-19T01:47:54.034Z,9.30
2019-04-19T01:50:25.320Z,9.30
2019-04-19T01:53:03.574Z,9.30
2019-04-19T01:55:20.665Z,9.30
2019-04-19T01:57:45.211Z,9.30
2019-04-19T02:00:25.239Z,9.30
2019-04-19T02:02:52.690Z,9.20
2019-04-19T02:05:19.509Z,9.10
2019-04-19T02:07:55.371Z,9.10
2019-04-19T02:11:27.944Z,9.20
2019-04-19T02:13:56.536Z,9.20
2019-04-19T02:16:20.460Z,9.10
2019-04-19T02:18:47.930Z,9.10
2019-04-19T02:21:24.488Z,9.10
2019-04-19T02:23:54.032Z,9.00
2019-04-19T02:26:21.261Z,9.00
2019-04-19T02:28:51.375Z,9.10
2019-04-19T02:31:44.406Z,9.10
2019-04-19T02:34:21.599Z,9.00
2019-04-19T02:39:30.886Z,9.00
2019-04-19T02:42:16.810Z,9.00
2019-04-19T02:44:46.100Z,9.00
2019-04-19T02:47:14.742Z,8.90
2019-04-19T02:49:37.092Z,8.90
2019-04-19T02:52:06.691Z,8.90
2019-04-19T02:54:38.082Z,8.90
2019-04-19T02:57:29.406Z,8.90
2019-04-19T03:00:13.354Z,8.90
2019-04-19T03:02:47.823Z,8.90
2019-04-19T03:07:17.563Z,8.80
2019-04-19T03:09:48.676Z,8.70
2019-04-19T03:12:36.759Z,8.70
2019-04-19T03:15:07.525Z,8.70
2019-04-19T03:17:41.374Z,8.70
2019-04-19T03:20:05.376Z,8.70
2019-04-19T03:22:40.830Z,8.60
2019-04-19T03:25:10.881Z,8.60
2019-04-19T03:27:40.870Z,8.60
2019-04-19T03:30:14.556Z,8.60
2019-04-19T03:33:05.264Z,8.60
2019-04-19T03:35:12.589Z,8.60
2019-04-19T03:37:53.175Z,8.60
2019-04-19T03:40:23.350Z,8.50
2019-04-19T03:42:49.119Z,8.60
2019-04-19T03:45:28.735Z,8.50
2019-04-19T03:48:04.685Z,8.50
2019-04-19T03:50:36.297Z,8.50
2019-04-19T03:53:03.249Z,8.50
2019-04-19T03:55:36.042Z,8.60
2019-04-19T03:57:58.130Z,8.60
2019-04-19T04:00:19.770Z,8.50
2019-04-19T04:02:50.006Z,8.50
2019-04-19T04:05:22.658Z,8.50
2019-04-19T04:08:02.724Z,8.50
2019-04-19T04:10:34.449Z,8.50
2019-04-19T04:13:36.559Z,8.50
2019-04-19T04:16:05.697Z,8.60
2019-04-19T04:18:24.106Z,8.50
2019-04-19T04:20:56.958Z,8.50
2019-04-19T04:23:31.730Z,8.60
2019-04-19T04:26:02.842Z,8.60
2019-04-19T04:28:42.661Z,8.60
2019-04-19T04:31:11.084Z,8.50
2019-04-19T04:33:42.624Z,8.50
2019-04-19T04:36:23.699Z,8.50
2019-04-19T04:38:37.940Z,8.50
2019-04-19T04:41:08.431Z,8.50
2019-04-19T04:43:44.709Z,8.50
2019-04-19T04:46:32.717Z,8.50
2019-04-19T04:49:13.638Z,8.50
2019-04-19T04:51:38.929Z,8.60
2019-04-19T04:53:57.415Z,8.70
2019-04-19T04:56:47.348Z,8.70
2019-04-19T04:59:13.076Z,8.70
2019-04-19T05:01:53.875Z,8.70
2019-04-19T05:04:27.194Z,8.70
2019-04-19T05:07:08.347Z,8.80
2019-04-19T05:09:32.690Z,8.80
2019-04-19T05:12:15.278Z,8.90
2019-04-19T05:14:33.933Z,8.90
2019-04-19T05:17:24.586Z,8.90
2019-04-19T05:19:40.468Z,9.00
2019-04-19T05:22:08.554Z,9.10
2019-04-19T05:24:51.995Z,9.10
2019-04-19T05:27:15.319Z,9.20
2019-04-19T05:29:35.893Z,9.10
2019-04-19T05:32:04.836Z,9.20
2019-04-19T05:34:49.875Z,9.20
2019-04-19T05:37:36.406Z,9.20
2019-04-19T05:40:12.222Z,9.30
2019-04-19T05:42:42.809Z,9.40
2019-04-19T05:45:26.121Z,9.40
2019-04-19T05:47:37.414Z,9.50
2019-04-19T05:50:17.127Z,9.50
2019-04-19T05:52:42.360Z,9.60
2019-04-19T05:54:58.154Z,9.60
2019-04-19T05:57:45.465Z,9.70
2019-04-19T06:00:13.949Z,9.70
2019-04-19T06:02:37.477Z,9.80
2019-04-19T06:05:22.285Z,10.00
2019-04-19T06:07:45.567Z,10.00
2019-04-19T06:10:08.919Z,10.00
2019-04-19T06:12:38.956Z,10.10
2019-04-19T06:15:34.282Z,10.20
2019-04-19T06:18:00.712Z,10.30
2019-04-19T06:20:34.008Z,10.40
2019-04-19T06:23:09.326Z,10.40
2019-04-19T06:25:49.083Z,10.50
2019-04-19T06:28:17.909Z,10.70
2019-04-19T06:30:40.946Z,10.80
2019-04-19T06:33:10.750Z,10.80
2019-04-19T06:35:37.717Z,10.90
2019-04-19T06:37:56.865Z,11.00
2019-04-19T06:40:31.148Z,11.10
2019-04-19T06:43:07.939Z,11.10
2019-04-19T06:45:48.257Z,11.20
2019-04-19T06:48:07.141Z,11.20
2019-04-19T06:50:36.625Z,11.30
2019-04-19T06:53:03.758Z,11.50
2019-04-19T06:55:38.437Z,11.50
2019-04-19T06:58:12.446Z,11.60
2019-04-19T07:00:49.365Z,11.60
2019-04-19T07:03:10.453Z,11.70
2019-04-19T07:05:51.014Z,11.80
2019-04-19T07:08:52.792Z,11.80
2019-04-19T07:11:06.090Z,11.90
2019-04-19T07:13:24.850Z,12.00
2019-04-19T07:16:10.386Z,12.10
2019-04-19T07:18:28.957Z,12.20
2019-04-19T07:21:07.841Z,12.30
2019-04-19T07:23:41.515Z,12.40
2019-04-19T07:26:11.016Z,12.40
2019-04-19T07:28:23.904Z,12.50
2019-04-19T07:30:58.008Z,12.50
2019-04-19T07:33:31.633Z,12.50
2019-04-19T07:36:11.996Z,12.70
2019-04-19T07:38:46.200Z,12.80
2019-04-19T07:41:16.356Z,12.90
2019-04-19T07:43:46.961Z,12.90
2019-04-19T07:46:19.357Z,13.00
2019-04-19T07:48:36.413Z,13.20
2019-04-19T07:51:13.506Z,13.30
2019-04-19T07:53:42.412Z,13.40
2019-04-19T07:56:21.168Z,13.50
2019-04-19T07:59:02.623Z,13.60
2019-04-19T08:01:45.678Z,13.70
2019-04-19T08:04:24.148Z,13.80
2019-04-19T08:06:41.641Z,14.00
2019-04-19T08:11:52.103Z,14.30
2019-04-19T08:14:09.874Z,14.50
2019-04-19T08:17:17.966Z,14.60
2019-04-19T08:29:08.180Z,15.30
2019-04-19T08:31:25.369Z,15.40
2019-04-19T08:33:55.218Z,15.50
2019-04-19T08:36:31.090Z,15.70
2019-04-19T08:39:14.880Z,15.90
2019-04-19T08:41:46.710Z,16.10
2019-04-19T08:44:16.491Z,16.20
2019-04-19T08:46:30.961Z,16.40
2019-04-19T08:49:05.524Z,16.50
2019-04-19T08:51:37.175Z,16.70
2019-04-19T08:54:28.781Z,16.70
2019-04-19T08:56:44.879Z,16.90
2019-04-19T08:59:34.879Z,17.00
2019-04-19T09:02:03.020Z,17.30
2019-04-19T09:04:33.035Z,17.40
2019-04-19T09:09:35.427Z,17.80
2019-04-19T09:12:06.928Z,18.00
2019-04-19T09:14:36.566Z,18.00
2019-04-19T09:17:12.928Z,18.20
2019-04-19T09:19:55.050Z,18.30
2019-04-19T09:22:07.682Z,18.50
2019-04-19T09:24:31.018Z,18.60
2019-04-19T09:27:06.037Z,18.70
2019-04-19T09:29:49.305Z,18.90
2019-04-19T09:32:05.666Z,19.00
2019-04-19T09:34:27.905Z,19.00
2019-04-19T09:37:06.691Z,19.20
2019-04-19T09:39:42.565Z,19.40
2019-04-19T09:42:07.705Z,19.50
2019-04-19T09:44:39.406Z,19.60
2019-04-19T09:47:03.967Z,19.70
2019-04-19T09:49:50.353Z,19.90
2019-04-19T09:52:31.930Z,20.10
2019-04-19T09:55:02.094Z,20.40
2019-04-19T09:57:29.007Z,20.60
2019-04-19T09:59:40.877Z,20.80
2019-04-19T10:02:19.374Z,21.00
2019-04-19T10:04:42.077Z,20.80
2019-04-19T10:07:11.683Z,21.10
2019-04-19T10:09:41.233Z,21.40
2019-04-19T10:12:11.308Z,21.50
2019-04-19T10:14:41.698Z,21.60
2019-04-19T10:17:20.521Z,21.90
2019-04-19T10:19:50.837Z,21.90
2019-04-19T10:22:20.864Z,22.20
2019-04-19T10:24:53.721Z,22.10
2019-04-19T10:27:26.991Z,22.00
2019-04-19T10:29:57.890Z,22.20
2019-04-19T10:32:29.035Z,22.60
2019-04-19T10:34:58.905Z,22.90
2019-04-19T10:37:28.609Z,23.20
2019-04-19T10:39:57.997Z,23.30
2019-04-19T10:42:27.454Z,23.10
2019-04-19T10:44:58.165Z,23.40
2019-04-19T10:47:29.358Z,23.70
2019-04-19T10:50:14.560Z,24.20
2019-04-19T10:52:31.258Z,24.40
2019-04-19T10:55:00.732Z,24.40
2019-04-19T10:57:31.381Z,24.40
2019-04-19T11:00:03.202Z,24.60
2019-04-19T11:02:34.485Z,24.70
2019-04-19T11:05:05.425Z,24.50
2019-04-19T11:07:36.857Z,24.50
2019-04-19T11:10:07.517Z,24.90
2019-04-19T11:12:38.511Z,25.20
2019-04-19T11:15:08.730Z,25.60
2019-04-19T11:17:38.365Z,25.90
2019-04-19T11:20:23.650Z,25.90
2019-04-19T11:22:39.979Z,26.10
2019-04-19T11:25:10.220Z,25.80
2019-04-19T11:27:40.167Z,25.90
2019-04-19T11:30:12.966Z,26.00
2019-04-19T11:32:44.458Z,25.90
2019-04-19T11:35:14.529Z,25.90
2019-04-19T11:37:44.929Z,26.30
2019-04-19T11:40:15.329Z,26.90
2019-04-19T11:42:45.614Z,27.30
2019-04-19T11:45:15.846Z,27.40
2019-04-19T11:47:45.363Z,27.50
2019-04-19T11:50:15.747Z,27.80
2019-04-19T11:52:48.203Z,28.20
2019-04-19T11:55:18.248Z,28.60
2019-04-19T11:57:56.774Z,28.90
2019-04-19T12:00:40.132Z,29.30
2019-04-19T12:03:12.005Z,29.80
2019-04-19T12:05:42.120Z,30.00
2019-04-19T12:08:12.672Z,29.40
2019-04-19T12:10:42.408Z,29.80
2019-04-19T12:13:12.970Z,30.10
2019-04-19T12:15:44.975Z,30.30
2019-04-19T12:18:14.215Z,30.30
2019-04-19T12:20:44.863Z,30.40
2019-04-19T12:23:15.759Z,29.70
2019-04-19T12:25:45.822Z,29.60
2019-04-19T12:28:15.430Z,31.10
2019-04-19T12:30:51.448Z,33.40
2019-04-19T12:33:17.409Z,35.00
2019-04-19T12:35:47.746Z,36.20
2019-04-19T12:38:17.676Z,36.70
2019-04-19T12:40:54.569Z,37.70
2019-04-19T12:43:24.041Z,38.80
2019-04-19T12:45:55.096Z,39.40
2019-04-19T12:48:25.708Z,39.10
2019-04-19T12:50:55.755Z,40.30
2019-04-19T12:53:25.416Z,41.00
2019-04-19T12:55:56.026Z,41.40
2019-04-19T12:58:26.085Z,42.10
2019-04-19T13:00:57.515Z,43.10
2019-04-19T13:03:38.048Z,43.20
2019-04-19T13:06:27.407Z,42.30
2019-04-19T13:08:57.289Z,41.80
2019-04-19T13:11:27.306Z,41.80
2019-04-19T13:13:57.645Z,41.00
2019-04-19T13:16:28.311Z,41.40
2019-04-19T13:18:58.471Z,41.40
2019-04-19T13:21:28.293Z,41.80
2019-04-19T13:23:58.407Z,42.00
2019-04-19T13:26:29.345Z,42.00
2019-04-19T13:28:59.700Z,42.40
2019-04-19T13:31:31.069Z,42.80
2019-04-19T13:34:00.975Z,43.20
2019-04-19T13:36:34.754Z,43.40
2019-04-19T13:39:21.417Z,43.10
2019-04-19T13:41:52.693Z,42.90
2019-04-19T13:44:22.939Z,42.40
2019-04-19T13:46:52.877Z,42.80
2019-04-19T13:49:22.561Z,43.00
2019-04-19T13:51:52.554Z,43.10
2019-04-19T13:54:22.909Z,42.90
2019-04-19T13:56:52.856Z,43.30
2019-04-19T13:59:26.003Z,42.80
2019-04-19T14:01:54.499Z,41.80
2019-04-19T14:04:25.774Z,41.00
2019-04-19T14:06:56.150Z,39.90
2019-04-19T14:09:27.317Z,40.30
2019-04-19T14:11:57.470Z,40.10
2019-04-19T14:14:27.851Z,40.40
2019-04-19T14:16:59.816Z,40.10
2019-04-19T14:19:29.556Z,39.60
2019-04-19T14:21:58.851Z,39.50
2019-04-19T14:24:29.261Z,39.80
2019-04-19T14:26:59.573Z,39.90
2019-04-19T14:29:29.973Z,38.30
2019-04-19T14:31:59.442Z,38.00
2019-04-19T14:34:29.230Z,37.70
2019-04-19T14:37:00.183Z,37.40
2019-04-19T14:39:30.836Z,37.00
2019-04-19T14:42:09.578Z,36.40
2019-04-19T14:44:39.801Z,35.80
2019-04-19T14:47:10.682Z,35.90
2019-04-19T14:49:40.869Z,36.40
2019-04-19T14:52:11.912Z,36.60
2019-04-19T14:54:42.887Z,36.50
2019-04-19T14:57:13.378Z,36.00
2019-04-19T14:59:43.231Z,35.40
2019-04-19T15:02:15.127Z,34.80
2019-04-19T15:04:58.639Z,34.80
2019-04-19T15:07:28.398Z,34.80
2019-04-19T15:09:58.130Z,34.80
2019-04-19T15:12:28.897Z,35.20
2019-04-19T15:14:59.702Z,34.90
2019-04-19T15:17:29.298Z,34.90
2019-04-19T15:19:59.301Z,34.50
2019-04-19T15:22:30.291Z,34.10
2019-04-19T15:24:59.985Z,33.90
2019-04-19T15:27:30.656Z,33.90
2019-04-19T15:30:01.074Z,33.40
2019-04-19T15:32:30.900Z,33.40
2019-04-19T15:35:01.277Z,33.00
2019-04-19T15:37:31.815Z,32.90
2019-04-19T15:40:02.350Z,32.60
2019-04-19T15:42:32.487Z,32.40
2019-04-19T15:45:03.231Z,32.20
2019-04-19T15:47:32.806Z,32.10
2019-04-19T15:50:02.421Z,32.00
2019-04-19T15:52:32.235Z,32.30
2019-04-19T15:55:02.107Z,32.10
2019-04-19T15:57:32.232Z,32.10
2019-04-19T16:00:02.440Z,31.60
2019-04-19T16:02:44.207Z,31.20
2019-04-19T16:05:33.885Z,31.00
2019-04-19T16:08:09.367Z,30.10
2019-04-19T16:10:42.512Z,29.80
2019-04-19T16:13:11.947Z,29.60
2019-04-19T16:15:42.359Z,29.50
2019-04-19T16:18:12.069Z,28.80
2019-04-19T16:20:44.398Z,28.50
2019-04-19T16:23:13.880Z,27.90
2019-04-19T16:25:44.358Z,27.30
2019-04-19T16:28:15.232Z,27.30
2019-04-19T16:30:44.623Z,27.10
2019-04-19T16:33:14.097Z,27.20
2019-04-19T16:35:44.606Z,27.40
2019-04-19T16:38:14.298Z,27.20
2019-04-19T16:40:43.603Z,26.90
2019-04-19T16:43:13.344Z,27.20
2019-04-19T16:45:44.136Z,27.40
2019-04-19T16:48:14.706Z,27.50
2019-04-19T16:50:44.349Z,27.40
2019-04-19T16:53:13.738Z,27.40
2019-04-19T16:55:43.688Z,27.20
2019-04-19T16:58:14.595Z,26.70
2019-04-19T17:00:47.033Z,26.60
2019-04-19T17:03:17.486Z,26.40
2019-04-19T17:05:48.653Z,26.40
2019-04-19T17:08:19.573Z,26.10
2019-04-19T17:10:49.181Z,25.90
2019-04-19T17:13:18.567Z,25.70
2019-04-19T17:15:50.769Z,25.30
2019-04-19T17:18:30.941Z,25.00
2019-04-19T17:21:07.974Z,24.50
2019-04-19T17:23:37.504Z,24.00
2019-04-19T17:26:07.183Z,23.70
2019-04-19T17:28:36.919Z,23.50
2019-04-19T17:31:06.543Z,23.30
2019-04-19T17:33:36.022Z,23.10
2019-04-19T17:36:06.140Z,23.00
2019-04-19T17:38:41.442Z,22.80
2019-04-19T17:41:07.615Z,22.60
2019-04-19T17:43:37.544Z,22.40
2019-04-19T17:46:08.687Z,22.10
2019-04-19T17:48:38.765Z,22.10
2019-04-19T17:51:09.579Z,22.00
2019-04-19T17:53:42.651Z,21.80
2019-04-19T17:56:11.269Z,21.70
2019-04-19T17:58:42.340Z,21.60
2019-04-19T18:01:12.448Z,21.50
2019-04-19T18:03:42.906Z,21.40
2019-04-19T18:06:12.629Z,21.30
2019-04-19T18:08:44.570Z,21.20
2019-04-19T18:11:20.377Z,21.00
2019-04-19T18:13:44.525Z,20.90
2019-04-19T18:16:14.389Z,20.70
2019-04-19T18:18:47.853Z,20.50
2019-04-19T18:21:16.482Z,20.30
2019-04-19T18:23:52.809Z,20.20
2019-04-19T18:26:24.359Z,20.10
2019-04-19T18:28:49.726Z,19.90
2019-04-19T18:31:24.651Z,19.80
2019-04-19T18:34:01.671Z,19.70
2019-04-19T18:36:25.605Z,19.60
2019-04-19T18:38:55.722Z,19.50
2019-04-19T18:41:25.344Z,19.40
2019-04-19T18:44:05.973Z,19.30
2019-04-19T18:46:26.850Z,19.20
2019-04-19T18:48:57.761Z,19.00
2019-04-19T18:51:34.948Z,18.90
2019-04-19T18:54:11.377Z,18.80
2019-04-19T18:56:30.361Z,18.70
2019-04-19T18:59:08.259Z,18.60
2019-04-19T19:01:37.722Z,18.50
2019-04-19T19:04:05.021Z,18.40
2019-04-19T19:06:38.405Z,18.30
2019-04-19T19:09:11.115Z,18.10
2019-04-19T19:11:40.168Z,18.10
2019-04-19T19:14:14.450Z,17.90
2019-04-19T19:16:42.853Z,17.90
2019-04-19T19:19:19.264Z,17.80
2019-04-19T19:22:04.274Z,17.80
2019-04-19T19:24:52.470Z,17.70
2019-04-19T19:27:13.890Z,17.70
2019-04-19T19:29:36.482Z,17.60
2019-04-19T19:32:10.655Z,17.50
2019-04-19T19:34:36.924Z,17.40
2019-04-19T19:37:09.989Z,17.30
2019-04-19T19:39:41.019Z,17.20
2019-04-19T19:42:44.724Z,17.10
2019-04-19T19:45:14.023Z,17.00
2019-04-19T19:47:54.510Z,17.00
2019-04-19T19:50:22.633Z,16.90
2019-04-19T19:52:53.291Z,16.80
2019-04-19T19:55:17.591Z,16.80
2019-04-19T19:57:44.768Z,16.80
2019-04-19T20:00:15.778Z,16.70
2019-04-19T20:02:51.481Z,16.70
2019-04-19T20:05:12.190Z,16.70
2019-04-19T20:07:46.062Z,16.70
2019-04-19T20:10:14.161Z,16.60
2019-04-19T20:12:51.832Z,16.50
2019-04-19T20:15:15.198Z,16.50
2019-04-19T20:17:51.022Z,16.40
2019-04-19T20:20:21.599Z,16.30
2019-04-19T20:22:50.413Z,16.30
2019-04-19T20:25:32.938Z,16.30
2019-04-19T20:27:53.772Z,16.20
2019-04-19T20:30:21.681Z,16.10
2019-04-19T20:32:55.821Z,16.00
2019-04-19T20:35:24.689Z,16.00
2019-04-19T20:37:58.549Z,16.00
2019-04-19T20:40:26.219Z,15.90
2019-04-19T20:43:14.737Z,15.80
2019-04-19T20:45:36.895Z,15.60
2019-04-19T20:48:07.073Z,15.60
2019-04-19T20:50:43.578Z,15.50
2019-04-19T20:53:14.678Z,15.50
2019-04-19T20:55:55.376Z,15.60
2019-04-19T20:58:24.500Z,15.50
2019-04-19T21:00:42.370Z,15.50
2019-04-19T21:03:15.703Z,15.30
2019-04-19T21:05:46.440Z,15.30
2019-04-19T21:08:16.224Z,15.20
2019-04-19T21:10:53.826Z,15.20
2019-04-19T21:13:19.593Z,15.10
2019-04-19T21:15:48.714Z,15.10
2019-04-19T21:18:23.551Z,15.00
2019-04-19T21:20:50.261Z,14.90
2019-04-19T21:23:25.419Z,15.00
2019-04-19T21:25:57.012Z,14.90
2019-04-19T21:28:29.656Z,14.90
2019-04-19T21:30:57.412Z,14.90
2019-04-19T21:33:24.761Z,14.90
2019-04-19T21:36:02.202Z,14.80
2019-04-19T21:38:26.861Z,14.70
2019-04-19T21:40:57.654Z,14.70
2019-04-19T21:43:31.004Z,14.70
2019-04-19T21:45:59.375Z,14.70
2019-04-19T21:48:35.914Z,14.70
2019-04-19T21:51:00.219Z,14.70
2019-04-19T21:53:34.634Z,14.70
2019-04-19T21:56:05.777Z,14.60
2019-04-19T21:58:31.987Z,14.60
2019-04-19T22:01:08.756Z,14.60
2019-04-19T22:03:32.767Z,14.60
2019-04-19T22:06:13.269Z,14.60
2019-04-19T22:08:36.959Z,14.50
2019-04-19T22:11:06.502Z,14.50
2019-04-19T22:13:40.911Z,14.40
2019-04-19T22:16:08.338Z,14.30
2019-04-19T22:18:44.184Z,14.30
2019-04-19T22:21:10.437Z,14.30
2019-04-19T22:23:45.759Z,14.20
2019-04-19T22:26:21.184Z,14.20
2019-04-19T22:28:43.782Z,14.20
2019-04-19T22:31:20.823Z,14.20
2019-04-19T22:33:44.357Z,14.10
2019-04-19T22:36:13.824Z,14.10
2019-04-19T22:38:50.132Z,14.00
2019-04-19T22:41:17.586Z,14.00
2019-04-19T22:43:46.827Z,14.00
2019-04-19T22:46:17.138Z,13.90
2019-04-19T22:48:54.071Z,13.80
2019-04-19T22:51:18.839Z,13.80
2019-04-19T22:53:48.577Z,13.80
2019-04-19T22:56:25.838Z,13.70
2019-04-19T22:58:49.535Z,13.60
2019-04-19T23:01:28.362Z,13.60
2019-04-19T23:03:59.293Z,13.50
2019-04-19T23:06:30.933Z,13.50
2019-04-19T23:09:00.959Z,13.50
2019-04-19T23:11:30.502Z,13.50
2019-04-19T23:14:01.145Z,13.50
2019-04-19T23:16:34.909Z,13.40
2019-04-19T23:19:05.944Z,13.40
2019-04-19T23:21:33.267Z,13.30
2019-04-19T23:24:06.871Z,13.40
2019-04-19T23:26:55.734Z,13.30
2019-04-19T23:29:04.976Z,13.20
2019-04-19T23:31:41.243Z,13.20
2019-04-19T23:34:07.621Z,13.10
2019-04-19T23:36:37.526Z,13.10
2019-04-19T23:39:11.056Z,13.10
2019-04-19T23:41:39.352Z,13.00
2019-04-19T23:44:13.304Z,13.00
2019-04-19T23:46:41.347Z,13.00
2019-04-19T23:49:15.566Z,12.90
2019-04-19T23:51:43.234Z,12.90
2019-04-19T23:54:21.112Z,12.90
2019-04-19T23:56:54.047Z,12.90
2019-04-19T23:59:19.009Z,12.80
